Dobrodošli na spletni strani vremenske postaje Senovo. Vse informacije so informativnega značaja, saj vremenska postaja ni del državne mreže meteoroloških postaj. AKTUALNIH OBVESTIL NI.


Sneg/Led Od: 21-02-2018 00:00 Do: 23-02-2018 23:59 Opozorilo za: Sneg/Led Stopnja: Rumena info button
Veter Od: 21-02-2018 00:00 Do: 22-02-2018 23:59 Opozorilo za: Veter Stopnja: Rumena info button

Pogled proti Armezu več informacij Pogled proti Armezu


Lisca več informacij Lisca


Radar strel več informacij blitzortung!


opozorilo za sneg/led več informacij rain snow radar


Obiščite še:

Template documentation
and downloads

And another site



Weather Underground, zgodovina - Tekstovno

Dnevni povzetek za Januar 26, 2018 Enote:  Metrično    Angleško   Obe
« Predhodni Dan
Naslednji Dan »
Dnevni Tedenski Mesečni Letni Po meri
  Višja: Nižja: Povprečje:
Temperatura: -17.8 °C -17.1 °C -13.9 °C
Točka rosišča: -17.8 °C -18.9 °C -16.8 °C
Vlažnost: Humidity % 46 % 72 %
Hitrost vetra: 0 km/h 0 km/h 5 km/h
Sunki vetra: 0 km/h - -
Veter:- - WSW
Zračni tlak: 0 hPa 34405.1 hPa -
Padavine: 0 mm    
Historical Graphs
 
 
Tabelarni podarki za Januar 26, 2018
Čas Temperatura Točka rosišča Zračni tlak Veter Hitrost vetra Sunki vetra Vlažnost Intenziteta padavin (urna)
-17.8 °C -17.8 °C 0 hPa Calm     Humidity % 0 mm
00:02 -16 °C -17.7 °C 34496.6 hPa WSW 0.8 km/h 8.9 km/h 80 % 0 mm
00:07 -16.1 °C -17.8 °C 34496.6 hPa WSW 3.1 km/h 11.1 km/h 80 % 0 mm
00:12 -16 °C -17.6 °C 34496.6 hPa WSW 3.1 km/h 11.1 km/h 81 % 0 mm
00:17 -16.1 °C -17.7 °C 34496.6 hPa WNW 2.1 km/h 6.4 km/h 81 % 0 mm
00:22 -16 °C -17.6 °C 34496.6 hPa NW 1.8 km/h 12.2 km/h 81 % 0 mm
00:27 -16 °C -17.6 °C 34496.6 hPa NW 1.8 km/h 12.2 km/h 82 % 0 mm
00:32 -15.9 °C -17.5 °C 34496.6 hPa NW 1.3 km/h 6.9 km/h 82 % 0 mm
00:37 -15.9 °C -17.5 °C 34496.6 hPa West 1.6 km/h 8 km/h 82 % 0 mm
00:42 -15.9 °C -17.4 °C 34496.6 hPa SW 1.8 km/h 8 km/h 83 % 0 mm
00:47 -15.8 °C -17.3 °C 34496.6 hPa WNW 1.3 km/h 5.1 km/h 83 % 0 mm
00:52 -15.7 °C -17.1 °C 34496.6 hPa NNW 1.3 km/h 8.9 km/h 84 % 0 mm
00:57 -15.4 °C -16.8 °C 34496.6 hPa NW 3.7 km/h 18.7 km/h 84 % 0 mm
01:02 -15.2 °C -16.4 °C 34496.6 hPa SW 6.3 km/h 18.7 km/h 85 % 0 mm
01:07 -14.8 °C -16.1 °C 34496.6 hPa SW 8.5 km/h 20.3 km/h 85 % 0 mm
01:12 -14.5 °C -15.8 °C 34476.3 hPa SW 8.5 km/h 20.3 km/h 85 % 0 mm
01:17 -14.3 °C -15.5 °C 34476.3 hPa SSW 5.6 km/h 14.5 km/h 86 % 0 mm
01:22 -14 °C -15.2 °C 34476.3 hPa WSW 6 km/h 14.5 km/h 86 % 0 mm
01:27 -13.8 °C -15.1 °C 34476.3 hPa SW 7.2 km/h 14.5 km/h 86 % 0 mm
01:32 -13.7 °C -14.9 °C 34476.3 hPa SW 6.8 km/h 14.5 km/h 86 % 0 mm
01:37 -13.7 °C -14.8 °C 34476.3 hPa SW 5 km/h 12.2 km/h 87 % 0 mm
01:42 -13.6 °C -14.7 °C 34476.3 hPa SSW 2.3 km/h 9.8 km/h 87 % 0 mm
01:47 -13.6 °C -14.7 °C 34476.3 hPa South 4.7 km/h 20.9 km/h 87 % 0 mm
01:52 -13.5 °C -14.6 °C 34476.3 hPa South 7.6 km/h 20.9 km/h 87 % 0 mm
01:57 -13.4 °C -14.6 °C 34476.3 hPa South 4.7 km/h 14.5 km/h 87 % 0 mm
02:02 -13.4 °C -14.6 °C 34476.3 hPa SSE 1.6 km/h 6.4 km/h 87 % 0 mm
02:07 -13.4 °C -14.5 °C 34476.3 hPa South 3.4 km/h 11.1 km/h 87 % 0 mm
02:12 -13.4 °C -14.5 °C 34428.8 hPa SSW 4.2 km/h 11.1 km/h 87 % 0 mm
02:17 -13.4 °C -14.6 °C 34428.8 hPa SSW 2.6 km/h 6.9 km/h 87 % 0 mm
02:22 -13.4 °C -14.5 °C 34428.8 hPa South 4.3 km/h 8.9 km/h 87 % 0 mm
02:27 -13.4 °C -14.7 °C 34428.8 hPa South 4.7 km/h 11.1 km/h 86 % 0 mm
02:32 -13.4 °C -14.7 °C 34428.8 hPa South 5 km/h 11.1 km/h 86 % 0 mm
02:37 -13.5 °C -14.7 °C 34428.8 hPa South 5.6 km/h 10.3 km/h 86 % 0 mm
02:42 -13.6 °C -14.8 °C 34428.8 hPa South 4.2 km/h 10.3 km/h 86 % 0 mm
02:47 -13.7 °C -14.9 °C 34428.8 hPa SSE 2.3 km/h 12.2 km/h 85 % 0 mm
02:52 -13.7 °C -14.9 °C 34428.8 hPa South 1.8 km/h 12.2 km/h 85 % 0 mm
02:57 -13.7 °C -14.9 °C 34428.8 hPa SSE 1 km/h 7.6 km/h 85 % 0 mm
03:02 -13.7 °C -15.1 °C 34428.8 hPa SW 0.8 km/h 6.4 km/h 85 % 0 mm
03:07 -13.8 °C -15.2 °C 34428.8 hPa South 2.1 km/h 8 km/h 84 % 0 mm
03:13 -13.9 °C -15.3 °C 34428.8 hPa South 3.1 km/h 8 km/h 84 % 0 mm
03:18 -14.1 °C -15.5 °C 34428.8 hPa SW 1.8 km/h 7.6 km/h 84 % 0 mm
03:23 -14.3 °C -15.7 °C 34428.8 hPa SW 1 km/h 6.4 km/h 84 % 0 mm
03:28 -14.4 °C -15.9 °C 34428.8 hPa SW 1.6 km/h 4.2 km/h 83 % 0 mm
03:33 -14.6 °C -16.1 °C 34428.8 hPa WSW 1.6 km/h 6.9 km/h 83 % 0 mm
03:38 -14.8 °C -16.3 °C 34428.8 hPa WNW 1.8 km/h 6.9 km/h 83 % 0 mm
03:43 -14.8 °C -16.3 °C 34428.8 hPa NW 0.8 km/h 6.9 km/h 83 % 0 mm
03:48 -14.9 °C -16.4 °C 34428.8 hPa NW 1.8 km/h 7.6 km/h 83 % 0 mm
03:53 -15 °C -16.5 °C 34428.8 hPa NW 2.3 km/h 7.6 km/h 83 % 0 mm
03:58 -15.1 °C -16.5 °C 34428.8 hPa WNW 0.8 km/h 5.1 km/h 83 % 0 mm
04:03 -15.2 °C -16.6 °C 34428.8 hPa West 0.3 km/h 4.2 km/h 83 % 0 mm
04:08 -15.2 °C -16.7 °C 34428.8 hPa WNW 0.5 km/h 5.6 km/h 83 % 0 mm
04:13 -15.2 °C -16.7 °C 34428.8 hPa WNW 0.8 km/h 5.6 km/h 83 % 0 mm
04:18 -15.3 °C -16.7 °C 34428.8 hPa North 0.3 km/h   83 % 0 mm
04:23 -15.3 °C -16.7 °C 34428.8 hPa Calm   4.2 km/h 83 % 0 mm
04:28 -15.3 °C -16.6 °C 34405.1 hPa NNW 0.3 km/h 4.2 km/h 84 % 0 mm
04:33 -15.3 °C -16.6 °C 34405.1 hPa WNW 0.5 km/h 5.6 km/h 84 % 0 mm
04:38 -15.3 °C -16.7 °C 34405.1 hPa WNW 0.3 km/h 5.6 km/h 84 % 0 mm
04:43 -15.3 °C -16.7 °C 34428.8 hPa Calm     84 % 0 mm
04:48 -15.3 °C -16.6 °C 34428.8 hPa Calm     84 % 0 mm
04:53 -15.3 °C -16.6 °C 34428.8 hPa Calm     85 % 0 mm
04:58 -15.3 °C -16.6 °C 34428.8 hPa WSW 1 km/h 7.6 km/h 85 % 0 mm
05:03 -15.3 °C -16.6 °C 34428.8 hPa WSW 3.1 km/h 9.8 km/h 85 % 0 mm
05:08 -15.3 °C -16.6 °C 34428.8 hPa SW 6 km/h 10.3 km/h 85 % 0 mm
05:13 -15.3 °C -16.6 °C 34428.8 hPa SW 5.1 km/h 10.3 km/h 85 % 0 mm
05:18 -15.4 °C -16.7 °C 34428.8 hPa West 1.6 km/h 6.9 km/h 85 % 0 mm
05:23 -15.4 °C -16.6 °C 34428.8 hPa NW 0.5 km/h 4.2 km/h 86 % 0 mm
05:28 -15.4 °C -16.6 °C 34405.1 hPa NW 0.5 km/h 4.2 km/h 86 % 0 mm
05:33 -15.4 °C -16.6 °C 34405.1 hPa Calm     86 % 0 mm
05:38 -15.4 °C -16.6 °C 34405.1 hPa Calm     86 % 0 mm
05:43 -15.5 °C -16.7 °C 34428.8 hPa Calm     86 % 0 mm
05:48 -15.5 °C -16.7 °C 34428.8 hPa NW 0.3 km/h 5.1 km/h 86 % 0 mm
05:53 -15.5 °C -16.7 °C 34428.8 hPa WNW 0.8 km/h 5.6 km/h 86 % 0 mm
05:58 -15.6 °C -16.7 °C 34428.8 hPa West 0.3 km/h 5.6 km/h 86 % 0 mm
06:03 -15.6 °C -16.6 °C 34428.8 hPa Calm     87 % 0 mm
06:08 -15.6 °C -16.6 °C 34428.8 hPa Calm     87 % 0 mm
06:13 -15.6 °C -16.7 °C 34428.8 hPa Calm     87 % 0 mm
06:18 -15.7 °C -16.8 °C 34428.8 hPa Calm     87 % 0 mm
06:23 -15.7 °C -16.8 °C 34428.8 hPa Calm     87 % 0 mm
06:28 -15.7 °C -16.8 °C 34428.8 hPa Calm     87 % 0 mm
06:33 -15.7 °C -16.8 °C 34428.8 hPa Calm     87 % 0 mm
06:38 -15.7 °C -16.7 °C 34428.8 hPa Calm     88 % 0 mm
06:43 -15.8 °C -16.8 °C 34428.8 hPa Calm     88 % 0 mm
06:49 -15.8 °C -16.8 °C 34428.8 hPa Calm     88 % 0 mm
06:53 -15.8 °C -16.8 °C 34428.8 hPa Calm     88 % 0 mm
06:59 -15.8 °C -16.8 °C 34476.3 hPa NW 1.3 km/h 6.9 km/h 88 % 0 mm
07:03 -15.7 °C -16.7 °C 34476.3 hPa NW 1.3 km/h 6.9 km/h 88 % 0 mm
07:09 -15.7 °C -16.7 °C 34476.3 hPa Calm     88 % 0 mm
07:13 -15.7 °C -16.7 °C 34476.3 hPa NW 1 km/h 6.4 km/h 88 % 0 mm
07:19 -15.7 °C -16.7 °C 34476.3 hPa NW 1 km/h 6.4 km/h 88 % 0 mm
07:23 -15.7 °C -16.7 °C 34476.3 hPa Calm     88 % 0 mm
07:29 -15.7 °C -16.6 °C 34476.3 hPa Calm     89 % 0 mm
07:34 -15.7 °C -16.6 °C 34476.3 hPa Calm     89 % 0 mm
07:39 -15.7 °C -16.6 °C 34476.3 hPa Calm     89 % 0 mm
07:44 -15.7 °C -16.6 °C 34476.3 hPa Calm     89 % 0 mm
07:49 -15.7 °C -16.6 °C 34476.3 hPa Calm     89 % 0 mm
07:54 -15.7 °C -16.6 °C 34476.3 hPa Calm     89 % 0 mm
07:59 -15.6 °C -16.4 °C 34476.3 hPa Calm     90 % 0 mm
08:04 -15.6 °C -16.4 °C 34476.3 hPa Calm     90 % 0 mm
08:09 -15.6 °C -16.4 °C 34476.3 hPa Calm     90 % 0 mm
08:14 -15.6 °C -16.4 °C 34496.6 hPa Calm     90 % 0 mm
08:19 -15.5 °C -16.3 °C 34496.6 hPa Calm     90 % 0 mm
08:24 -15.4 °C -16.2 °C 34496.6 hPa SSE 0.3 km/h 5.6 km/h 90 % 0 mm
08:29 -15.3 °C -16.2 °C 34496.6 hPa SSE 0.3 km/h 5.6 km/h 90 % 0 mm
08:34 -15.2 °C -15.9 °C 34496.6 hPa Calm     91 % 0 mm
08:39 -15.2 °C -15.9 °C 34496.6 hPa Calm     91 % 0 mm
08:44 -15.1 °C -15.9 °C 34496.6 hPa Calm     91 % 0 mm
08:49 -15 °C -15.7 °C 34496.6 hPa Calm     91 % 0 mm
08:54 -14.9 °C -15.7 °C 34496.6 hPa Calm     91 % 0 mm
08:59 -14.8 °C -15.6 °C 34496.6 hPa Calm     91 % 0 mm
09:04 -14.7 °C -15.4 °C 34496.6 hPa Calm     92 % 0 mm
09:09 -14.6 °C -15.3 °C 34496.6 hPa Calm     92 % 0 mm
09:14 -14.4 °C -15.1 °C 34496.6 hPa Calm     92 % 0 mm
09:19 -14.3 °C -14.9 °C 34496.6 hPa Calm     92 % 0 mm
09:24 -14.2 °C -14.8 °C 34496.6 hPa Calm   4.2 km/h 92 % 0 mm
09:29 -13.8 °C -14.5 °C 34496.6 hPa ESE 0.8 km/h 9.3 km/h 92 % 0 mm
09:34 -13.5 °C -14.1 °C 34496.6 hPa SSW 4.3 km/h 14 km/h 93 % 0 mm
09:39 -13.2 °C -13.9 °C 34496.6 hPa SW 7.2 km/h 14 km/h 92 % 0 mm
09:44 -12.9 °C -13.5 °C 34496.6 hPa SW 6.4 km/h 12.7 km/h 93 % 0 mm
09:49 -12.6 °C -13.2 °C 34496.6 hPa SW 7.6 km/h 15 km/h 93 % 0 mm
09:54 -12.4 °C -13.1 °C 34496.6 hPa WSW 8.2 km/h 22 km/h 93 % 0 mm
09:59 -12.2 °C -12.9 °C 34496.6 hPa West 11.4 km/h 22 km/h 92 % 0 mm
10:04 -12 °C -12.8 °C 34496.6 hPa West 10.9 km/h 22 km/h 91 % 0 mm
10:09 -11.9 °C -12.8 °C 34496.6 hPa WNW 9 km/h 26.7 km/h 90 % 0 mm
10:14 -11.8 °C -12.7 °C 34533.8 hPa West 9 km/h 26.7 km/h 89 % 0 mm
10:19 -11.7 °C -12.7 °C 34533.8 hPa WSW 8 km/h 22.5 km/h 88 % 0 mm
10:24 -11.6 °C -12.8 °C 34533.8 hPa West 9.7 km/h 22.5 km/h 86 % 0 mm
10:29 -11.4 °C -12.8 °C 34496.6 hPa West 12.2 km/h 29.5 km/h 85 % 0 mm
10:34 -11.4 °C -12.9 °C 34496.6 hPa WNW 12.2 km/h 29.5 km/h 83 % 0 mm
10:39 -11.3 °C -13 °C 34496.6 hPa NW 12.2 km/h 26.7 km/h 81 % 0 mm
10:44 -11.2 °C -13.2 °C 34496.6 hPa NW 13.2 km/h 26.7 km/h 79 % 0 mm
10:49 -11.1 °C -13.3 °C 34496.6 hPa WSW 10.6 km/h 28.5 km/h 76 % 0 mm
10:54 -10.9 °C -13.4 °C 34496.6 hPa WSW 9.3 km/h 29.5 km/h 74 % 0 mm
10:59 -10.9 °C -13.6 °C 34496.6 hPa WSW 13.2 km/h 51.5 km/h 73 % 0 mm
11:04 -10.9 °C -13.7 °C 34496.6 hPa WSW 13.7 km/h 51.5 km/h 71 % 0 mm
11:09 -10.8 °C -14 °C 34496.6 hPa West 15.6 km/h 51 km/h 68 % 0 mm
11:14 -10.9 °C -14.3 °C 34496.6 hPa West 22.5 km/h 51 km/h 66 % 0 mm
11:19 -10.8 °C -14.5 °C 34496.6 hPa WNW 20.4 km/h 51 km/h 64 % 0 mm
11:24 -10.8 °C -14.9 °C 34496.6 hPa WNW 16.1 km/h 31.9 km/h 61 % 0 mm
11:29 -10.8 °C -14.9 °C 34496.6 hPa WNW 16.3 km/h 38.3 km/h 60 % 0 mm
11:34 -10.8 °C -15.1 °C 34496.6 hPa West 14.2 km/h 38.3 km/h 59 % 0 mm
11:39 -10.8 °C -15.4 °C 34496.6 hPa West 14.2 km/h 36.5 km/h 57 % 0 mm
11:44 -10.8 °C -15.5 °C 34496.6 hPa West 17.5 km/h 38.3 km/h 56 % 0 mm
11:49 -10.8 °C -15.7 °C 34496.6 hPa WSW 16.6 km/h 38.3 km/h 55 % 0 mm
11:54 -10.7 °C -15.8 °C 34496.6 hPa West 16.3 km/h 33.6 km/h 54 % 0 mm
11:59 -10.8 °C -15.8 °C 34496.6 hPa West 15.8 km/h 40.7 km/h 54 % 0 mm
12:04 -10.7 °C -15.9 °C 34496.6 hPa WSW 15.8 km/h 40.7 km/h 53 % 0 mm
12:09 -10.7 °C -16 °C 34496.6 hPa West 17.5 km/h 34.8 km/h 52 % 0 mm
12:14 -10.7 °C -16 °C 34496.6 hPa West 15.8 km/h 57.3 km/h 52 % 0 mm
12:19 -10.7 °C -16.2 °C 34496.6 hPa West 16.9 km/h 57.3 km/h 51 % 0 mm
12:24 -10.7 °C -16.3 °C 34496.6 hPa West 17.9 km/h 41.2 km/h 50 % 0 mm
12:29 -10.6 °C -16.3 °C 34496.6 hPa SW 15 km/h 31.4 km/h 50 % 0 mm
12:34 -10.6 °C -16.2 °C 34496.6 hPa WSW 14.2 km/h 39.9 km/h 50 % 0 mm
12:39 -10.5 °C -16.3 °C 34496.6 hPa SW 17.4 km/h 39.9 km/h 49 % 0 mm
12:44 -10.6 °C -16.4 °C 34496.6 hPa SW 20 km/h 38.3 km/h 49 % 0 mm
12:49 -10.5 °C -16.3 °C 34496.6 hPa WSW 16.3 km/h 34.1 km/h 49 % 0 mm
12:54 -10.4 °C -16.4 °C 34496.6 hPa WSW 13.2 km/h 38.3 km/h 48 % 0 mm
12:59 -10.4 °C -16.4 °C 34496.6 hPa WSW 15 km/h 39.9 km/h 48 % 0 mm
13:04 -10.4 °C -16.4 °C 34496.6 hPa WSW 15.3 km/h 39.9 km/h 48 % 0 mm
13:09 -10.4 °C -16.6 °C 34496.6 hPa WSW 15 km/h 39.9 km/h 47 % 0 mm
13:14 -10.4 °C -16.6 °C 34476.3 hPa West 15.8 km/h 38.3 km/h 47 % 0 mm
13:19 -10.4 °C -16.6 °C 34476.3 hPa WSW 14.5 km/h 38.3 km/h 47 % 0 mm
13:24 -10.4 °C -16.6 °C 34476.3 hPa WSW 15 km/h 26.7 km/h 47 % 0 mm
13:29 -10.4 °C -16.8 °C 34496.6 hPa WSW 15.3 km/h 26.7 km/h 46 % 0 mm
13:34 -10.4 °C -16.8 °C 34496.6 hPa West 12.4 km/h 30.7 km/h 46 % 0 mm
13:39 -10.4 °C -16.8 °C 34496.6 hPa WSW 12.7 km/h 30.7 km/h 46 % 0 mm
13:44 -10.5 °C -16.8 °C 34496.6 hPa West 15.3 km/h 31.4 km/h 46 % 0 mm
13:49 -10.6 °C -16.9 °C 34496.6 hPa WSW 15.6 km/h 31.4 km/h 46 % 0 mm
13:54 -10.6 °C -16.9 °C 34496.6 hPa WSW 12.9 km/h 24.8 km/h 46 % 0 mm
13:59 -10.6 °C -16.9 °C 34496.6 hPa West 12.9 km/h 37 km/h 46 % 0 mm
14:04 -10.6 °C -16.9 °C 34496.6 hPa WSW 12.2 km/h 37 km/h 46 % 0 mm
14:09 -10.6 °C -16.9 °C 34496.6 hPa SW 10.3 km/h 31.9 km/h 46 % 0 mm
14:14 -10.7 °C -17 °C 34496.6 hPa SW 13.2 km/h 31.9 km/h 46 % 0 mm
14:19 -10.7 °C -17 °C 34496.6 hPa WSW 16.1 km/h 44.6 km/h 46 % 0 mm
14:24 -10.8 °C -17.1 °C 34496.6 hPa WSW 13.5 km/h 44.6 km/h 46 % 0 mm
14:29 -10.8 °C -17.1 °C 34496.6 hPa West 11.4 km/h 27.7 km/h 46 % 0 mm
14:34 -10.8 °C -17.1 °C 34496.6 hPa WSW 11.9 km/h 33.2 km/h 46 % 0 mm
14:39 -10.8 °C -17.1 °C 34496.6 hPa SW 13.5 km/h 33.2 km/h 46 % 0 mm
14:44 -10.9 °C -17.2 °C 34496.6 hPa WSW 13.7 km/h 27.2 km/h 46 % 0 mm
14:49 -10.9 °C -17.2 °C 34496.6 hPa WSW 11.9 km/h 27.2 km/h 46 % 0 mm
14:54 -10.9 °C -17.2 °C 34496.6 hPa WSW 8.2 km/h 16.3 km/h 46 % 0 mm
14:59 -11 °C -17.3 °C 34476.3 hPa SSW 8.2 km/h 20.9 km/h 46 % 0 mm
15:04 -11 °C -17.1 °C 34476.3 hPa SSW 12.4 km/h 20.9 km/h 47 % 0 mm
15:09 -11.1 °C -17.2 °C 34476.3 hPa SSW 12.7 km/h 27.2 km/h 47 % 0 mm
15:14 -11.1 °C -17.2 °C 34496.6 hPa WSW 11.9 km/h 27.2 km/h 47 % 0 mm
15:19 -11.1 °C -17.2 °C 34496.6 hPa West 12.2 km/h 24.8 km/h 47 % 0 mm
15:24 -11.1 °C -17.2 °C 34496.6 hPa WSW 10.1 km/h 24.8 km/h 47 % 0 mm
15:29 -11.1 °C -17.2 °C 34496.6 hPa SW 8.9 km/h 20.9 km/h 47 % 0 mm
15:34 -11.2 °C -17.1 °C 34496.6 hPa SSW 10.6 km/h 20.9 km/h 48 % 0 mm
15:39 -11.2 °C -17.2 °C 34496.6 hPa SW 9.8 km/h 20.9 km/h 48 % 0 mm
15:44 -11.3 °C -17.2 °C 34496.6 hPa West 7.7 km/h 16.9 km/h 48 % 0 mm
15:49 -11.3 °C -17.3 °C 34496.6 hPa SW 9.7 km/h 20.9 km/h 48 % 0 mm
15:54 -11.3 °C -17.3 °C 34496.6 hPa SW 10.6 km/h 20.9 km/h 48 % 0 mm
15:59 -11.4 °C -17.3 °C 34476.3 hPa SW 9.7 km/h 19.2 km/h 48 % 0 mm
16:04 -11.4 °C -17.3 °C 34476.3 hPa SSW 10.1 km/h 19.6 km/h 48 % 0 mm
16:09 -11.4 °C -17.3 °C 34476.3 hPa SW 9.8 km/h 25.4 km/h 48 % 0 mm
16:14 -11.5 °C -17.4 °C 34496.6 hPa SW 10.3 km/h 26.2 km/h 48 % 0 mm
16:19 -11.6 °C -17.4 °C 34496.6 hPa SSW 11.6 km/h 26.2 km/h 48 % 0 mm
16:24 -11.6 °C -17.4 °C 34496.6 hPa SW 11.9 km/h 22.5 km/h 48 % 0 mm
16:29 -11.6 °C -17.3 °C 34496.6 hPa SW 14 km/h 37 km/h 49 % 0 mm
16:34 -11.7 °C -17.4 °C 34496.6 hPa SW 13.2 km/h 37 km/h 49 % 0 mm
16:39 -11.7 °C -17.4 °C 34496.6 hPa SW 8.2 km/h 22.5 km/h 49 % 0 mm
16:44 -11.7 °C -17.4 °C 34496.6 hPa SW 5 km/h 12.7 km/h 49 % 0 mm
16:49 -11.8 °C -17.5 °C 34496.6 hPa SW 5.5 km/h 12.7 km/h 49 % 0 mm
16:54 -11.8 °C -17.6 °C 34496.6 hPa WSW 6.4 km/h 11.1 km/h 49 % 0 mm
16:59 -11.9 °C -17.4 °C 34496.6 hPa WSW 6.8 km/h 14 km/h 50 % 0 mm
17:04 -11.9 °C -17.4 °C 34496.6 hPa WSW 8.9 km/h 19.6 km/h 50 % 0 mm
17:09 -11.9 °C -17.5 °C 34496.6 hPa WSW 8.9 km/h 19.6 km/h 50 % 0 mm
17:14 -12.1 °C -17.6 °C 34496.6 hPa SW 6 km/h 11.1 km/h 50 % 0 mm
17:19 -12.2 °C -17.7 °C 34496.6 hPa SW 5.6 km/h 12.7 km/h 50 % 0 mm
17:24 -12.2 °C -17.7 °C 34496.6 hPa SW 6.4 km/h 12.7 km/h 50 % 0 mm
17:29 -12.3 °C -17.7 °C 34496.6 hPa SW 6.8 km/h 10.3 km/h 51 % 0 mm
17:34 -12.4 °C -17.7 °C 34496.6 hPa SW 6.9 km/h 15.6 km/h 51 % 0 mm
17:39 -12.4 °C -17.7 °C 34496.6 hPa SW 6.3 km/h 15.6 km/h 52 % 0 mm
17:44 -12.6 °C -17.8 °C 34533.8 hPa SW 6.3 km/h 14 km/h 52 % 0 mm
17:49 -12.6 °C -17.8 °C 34533.8 hPa SW 6.4 km/h 14 km/h 52 % 0 mm
17:54 -12.6 °C -17.6 °C 34533.8 hPa SW 6.4 km/h 12.2 km/h 53 % 0 mm
17:59 -12.6 °C -17.7 °C 34533.8 hPa WSW 7.2 km/h 14.5 km/h 53 % 0 mm
18:04 -12.7 °C -17.8 °C 34533.8 hPa WSW 4.7 km/h 14.5 km/h 53 % 0 mm
18:09 -13 °C -17.9 °C 34533.8 hPa WSW 2.6 km/h 6.4 km/h 54 % 0 mm
18:14 -13.2 °C -18.1 °C 34533.8 hPa WNW 1.6 km/h 6.4 km/h 54 % 0 mm
18:19 -13.3 °C -18.2 °C 34533.8 hPa NW 0.3 km/h 3.4 km/h 54 % 0 mm
18:24 -13.5 °C -18.2 °C 34533.8 hPa NW 1.3 km/h 5.6 km/h 55 % 0 mm
18:29 -13.7 °C -18.3 °C 34533.8 hPa WNW 1.3 km/h 5.6 km/h 56 % 0 mm
18:34 -13.9 °C -18.4 °C 34533.8 hPa West 0.3 km/h 3.4 km/h 57 % 0 mm
18:39 -14.1 °C -18.5 °C 34533.8 hPa Calm     57 % 0 mm
18:44 -14.3 °C -18.6 °C 34533.8 hPa NW 1.3 km/h 9.8 km/h 58 % 0 mm
18:49 -14.4 °C -18.7 °C 34533.8 hPa NW 2.3 km/h 9.8 km/h 58 % 0 mm
18:54 -14.6 °C -18.7 °C 34533.8 hPa NW 1.3 km/h 7.6 km/h 59 % 0 mm
18:59 -14.7 °C -18.7 °C 34533.8 hPa NW 0.3 km/h 5.6 km/h 60 % 0 mm
19:04 -14.8 °C -18.8 °C 34533.8 hPa NW 0.3 km/h 6.4 km/h 60 % 0 mm
19:09 -15 °C -18.8 °C 34533.8 hPa WNW 0.5 km/h 6.4 km/h 61 % 0 mm
19:14 -15.1 °C -18.8 °C 34567.7 hPa Calm   6.4 km/h 62 % 0 mm
19:19 -15.2 °C -18.8 °C 34567.7 hPa WNW 0.3 km/h 6.4 km/h 63 % 0 mm
19:24 -15.3 °C -18.7 °C 34567.7 hPa Calm     64 % 0 mm
19:29 -15.4 °C -18.8 °C 34567.7 hPa WNW 0.3 km/h 2.9 km/h 64 % 0 mm
19:34 -15.5 °C -18.8 °C 34567.7 hPa WNW 0.3 km/h 2.9 km/h 65 % 0 mm
19:39 -15.6 °C -18.9 °C 34567.7 hPa NW 1 km/h 8 km/h 65 % 0 mm
19:44 -15.6 °C -18.8 °C 34567.7 hPa NW 1.6 km/h 8 km/h 66 % 0 mm
19:49 -15.7 °C -18.8 °C 34567.7 hPa North 0.5 km/h   67 % 0 mm
19:54 -15.7 °C -18.8 °C 34567.7 hPa Calm     67 % 0 mm
19:59 -15.8 °C -18.8 °C 34567.7 hPa Calm   4.2 km/h 68 % 0 mm
20:04 -15.8 °C -18.8 °C 34567.7 hPa WNW 0.3 km/h 4.2 km/h 68 % 0 mm
20:09 -15.9 °C -18.8 °C 34567.7 hPa WNW 0.8 km/h 4.2 km/h 69 % 0 mm
20:14 -15.9 °C -18.8 °C 34567.7 hPa WNW 0.3 km/h 4.2 km/h 69 % 0 mm
20:19 -15.9 °C -18.7 °C 34567.7 hPa Calm     70 % 0 mm
20:24 -15.9 °C -18.7 °C 34567.7 hPa Calm     70 % 0 mm
20:29 -15.9 °C -18.6 °C 34567.7 hPa Calm     71 % 0 mm
20:34 -16 °C -18.7 °C 34567.7 hPa West 0.5 km/h 8.9 km/h 71 % 0 mm
20:39 -16.1 °C -18.6 °C 34567.7 hPa West 1 km/h 8.9 km/h 72 % 0 mm
20:44 -16.1 °C -18.7 °C 34567.7 hPa NW 2.6 km/h 7.6 km/h 72 % 0 mm
20:49 -16.1 °C -18.7 °C 34567.7 hPa NW 2.6 km/h 7.6 km/h 72 % 0 mm
20:54 -16.2 °C -18.6 °C 34567.7 hPa WNW 0.5 km/h 6.4 km/h 73 % 0 mm
20:59 -16.2 °C -18.7 °C 34533.8 hPa Calm     73 % 0 mm
21:04 -16.3 °C -18.6 °C 34533.8 hPa Calm     74 % 0 mm
21:09 -16.3 °C -18.7 °C 34533.8 hPa Calm     74 % 0 mm
21:14 -16.4 °C -18.7 °C 34533.8 hPa Calm     74 % 0 mm
21:19 -16.4 °C -18.6 °C 34533.8 hPa Calm     75 % 0 mm
21:24 -16.4 °C -18.7 °C 34533.8 hPa WNW 0.5 km/h 6.9 km/h 75 % 0 mm
21:29 -16.5 °C -18.7 °C 34533.8 hPa WNW 0.5 km/h 6.9 km/h 75 % 0 mm
21:34 -16.6 °C -18.8 °C 34533.8 hPa Calm     75 % 0 mm
21:39 -16.6 °C -18.7 °C 34533.8 hPa WSW 0.8 km/h 7.6 km/h 76 % 0 mm
21:44 -16.7 °C -18.8 °C 34567.7 hPa WNW 3.1 km/h 7.6 km/h 76 % 0 mm
21:49 -16.7 °C -18.8 °C 34567.7 hPa NW 5.1 km/h 8.9 km/h 76 % 0 mm
21:54 -16.6 °C -18.7 °C 34567.7 hPa NW 3.4 km/h 8.9 km/h 76 % 0 mm
21:59 -16.7 °C -18.7 °C 34567.7 hPa NW 1.3 km/h 6.9 km/h 77 % 0 mm
22:05 -16.7 °C -18.7 °C 34567.7 hPa NW 0.5 km/h 4.2 km/h 77 % 0 mm
22:10 -16.7 °C -18.7 °C 34567.7 hPa NW 0.5 km/h 5.1 km/h 77 % 0 mm
22:15 -16.7 °C -18.7 °C 34567.7 hPa NW 1 km/h 5.1 km/h 78 % 0 mm
22:20 -16.7 °C -18.7 °C 34567.7 hPa NW 0.5 km/h 3.4 km/h 78 % 0 mm
22:25 -16.8 °C -18.7 °C 34567.7 hPa Calm     78 % 0 mm
22:30 -16.8 °C -18.7 °C 34567.7 hPa Calm     78 % 0 mm
22:35 -16.8 °C -18.7 °C 34567.7 hPa NW 1 km/h 6.9 km/h 78 % 0 mm
22:40 -16.8 °C -18.7 °C 34567.7 hPa NW 1.6 km/h 6.9 km/h 79 % 0 mm
22:45 -16.9 °C -18.7 °C 34567.7 hPa NNW 1 km/h 6.9 km/h 79 % 0 mm
22:50 -16.9 °C -18.7 °C 34567.7 hPa NW 2.9 km/h 9.3 km/h 79 % 0 mm
22:55 -16.9 °C -18.7 °C 34567.7 hPa NW 2.9 km/h 9.3 km/h 79 % 0 mm
23:00 -16.9 °C -18.7 °C 34601.5 hPa NE 0.8 km/h 4.2 km/h 79 % 0 mm
23:05 -16.9 °C -18.6 °C 34601.5 hPa Calm     80 % 0 mm
23:10 -16.9 °C -18.6 °C 34601.5 hPa WNW 0.3 km/h 6.4 km/h 80 % 0 mm
23:15 -16.9 °C -18.7 °C 34601.5 hPa WNW 0.3 km/h 6.4 km/h 80 % 0 mm
23:20 -17 °C -18.7 °C 34601.5 hPa NW 0.3 km/h 6.4 km/h 80 % 0 mm
23:25 -17 °C -18.6 °C 34601.5 hPa NNW 0.8 km/h 6.4 km/h 81 % 0 mm
23:30 -17 °C -18.6 °C 34601.5 hPa NW 1.3 km/h 6.9 km/h 81 % 0 mm
23:35 -17 °C -18.6 °C 34601.5 hPa NW 1.6 km/h 6.9 km/h 81 % 0 mm
23:40 -17 °C -18.6 °C 34601.5 hPa NW 0.8 km/h 3.4 km/h 81 % 0 mm
23:45 -17.1 °C -18.6 °C 34601.5 hPa Calm     82 % 0 mm
23:50 -17.1 °C -18.6 °C 34601.5 hPa WNW 0.5 km/h 8.9 km/h 82 % 0 mm
23:55 -17.1 °C -18.6 °C 34601.5 hPa NW 1.3 km/h 8.9 km/h 82 % 0 mm
Vremenska postaja Senovo
Podatki zbrani iz Weather Underground - 3 mb

Script developed by  Jim McMurry - jmcmurry@mwt.net Adapted for the template by  Wim van der Kuil - Leuven-Template.eu

Vremenski podatki so objavljeni na:

European Weather Network

WeatherCloud

Weather Underground

AWEKAS

HAMweather, WeatherForYou, PWS Weather

MapView

Geostik

Slovenia weather network

Oprema, ki se uporablja:

Vremenski program
Cumulus

Vremenski server
Asus

Cumulus

Asus